createdAt,value
2023-04-25T00:01:01.293Z,9.27
2023-04-25T00:03:32.147Z,9.31
2023-04-25T00:06:06.817Z,9.27
2023-04-25T00:08:37.639Z,9.13
2023-04-25T00:11:08.630Z,9.17
2023-04-25T00:13:39.036Z,9.22
2023-04-25T00:16:15.084Z,9.18
2023-04-25T00:18:47.481Z,9.24
2023-04-25T00:21:21.069Z,9.26
2023-04-25T00:23:52.009Z,9.32
2023-04-25T00:26:23.397Z,9.38
2023-04-25T00:28:53.837Z,9.36
2023-04-25T00:31:26.934Z,9.48
2023-04-25T00:33:58.996Z,9.40
2023-04-25T00:36:29.663Z,9.37
2023-04-25T00:39:00.131Z,9.41
2023-04-25T00:41:31.440Z,9.42
2023-04-25T00:44:03.480Z,9.41
2023-04-25T00:46:36.966Z,9.35
2023-04-25T00:49:07.610Z,9.31
2023-04-25T00:51:38.598Z,9.34
2023-04-25T00:54:09.098Z,9.41
2023-04-25T00:56:39.639Z,9.52
2023-04-25T00:59:14.196Z,9.56
2023-04-25T01:01:48.007Z,9.54
2023-04-25T01:04:18.726Z,9.56
2023-04-25T01:06:50.306Z,9.50
2023-04-25T01:09:24.608Z,9.31
2023-04-25T01:11:55.271Z,9.28
2023-04-25T01:14:25.871Z,9.17
2023-04-25T01:16:59.302Z,9.15
2023-04-25T01:19:29.972Z,9.10
2023-04-25T01:22:04.924Z,9.04
2023-04-25T01:24:39.072Z,9.09
2023-04-25T01:27:10.327Z,9.10
2023-04-25T01:29:41.537Z,9.09
2023-04-25T01:32:12.873Z,9.16
2023-04-25T01:34:43.770Z,9.15
2023-04-25T01:37:16.970Z,9.25
2023-04-25T01:39:49.951Z,9.23
2023-04-25T01:42:20.820Z,9.27
2023-04-25T01:44:51.944Z,9.30
2023-04-25T01:47:22.563Z,9.34
2023-04-25T01:49:53.214Z,9.25
2023-04-25T01:52:26.340Z,9.25
2023-04-25T01:54:58.212Z,9.33
2023-04-25T01:57:28.907Z,9.38
2023-04-25T02:00:04.080Z,9.38
2023-04-25T02:02:43.949Z,9.35
2023-04-25T02:05:30.164Z,9.26
2023-04-25T02:08:03.665Z,9.23
2023-04-25T02:10:34.277Z,9.38
2023-04-25T02:13:19.253Z,9.39
2023-04-25T02:16:20.133Z,9.40
2023-04-25T02:18:53.926Z,9.30
2023-04-25T02:21:24.569Z,9.17
2023-04-25T02:23:57.876Z,9.08
2023-04-25T02:26:28.408Z,9.03
2023-04-25T02:28:59.076Z,9.03
2023-04-25T02:31:29.946Z,8.97
2023-04-25T02:34:02.098Z,9.07
2023-04-25T02:36:35.385Z,9.26
2023-04-25T02:39:08.672Z,9.43
2023-04-25T02:41:39.520Z,9.52
2023-04-25T02:44:10.259Z,9.55
2023-04-25T02:46:41.927Z,9.53
2023-04-25T02:49:12.813Z,9.48
2023-04-25T02:51:43.669Z,9.37
2023-04-25T02:54:17.179Z,9.36
2023-04-25T02:56:51.349Z,9.38
2023-04-25T02:59:28.040Z,9.41
2023-04-25T03:01:58.753Z,9.51
2023-04-25T03:04:29.472Z,9.48
2023-04-25T03:07:00.170Z,9.54
2023-04-25T03:09:36.595Z,9.50
2023-04-25T03:12:08.556Z,9.57
2023-04-25T03:14:39.353Z,9.57
2023-04-25T03:17:10.085Z,9.61
2023-04-25T03:19:40.723Z,9.64
2023-04-25T03:22:11.292Z,9.76
2023-04-25T03:24:47.141Z,9.96
2023-04-25T03:27:18.188Z,9.95
2023-04-25T03:29:49.190Z,9.97
2023-04-25T03:32:20.036Z,10.03
2023-04-25T03:34:50.718Z,10.10
2023-04-25T03:37:21.433Z,10.22
2023-04-25T03:39:54.957Z,10.13
2023-04-25T03:42:30.137Z,10.27
2023-04-25T03:45:00.801Z,10.40
2023-04-25T03:47:31.841Z,10.56
2023-04-25T03:50:03.392Z,10.62
2023-04-25T03:52:34.368Z,10.58
2023-04-25T03:55:09.264Z,10.47
2023-04-25T03:57:40.983Z,10.33
2023-04-25T04:00:13.744Z,10.38
2023-04-25T04:02:45.437Z,10.36
2023-04-25T04:05:17.117Z,10.38
2023-04-25T04:07:54.679Z,10.41
2023-04-25T04:10:31.618Z,10.41
2023-04-25T04:13:04.180Z,10.41
2023-04-25T04:15:35.780Z,10.43
2023-04-25T04:18:07.491Z,10.45
2023-04-25T04:20:38.186Z,10.32
2023-04-25T04:23:09.900Z,10.33
2023-04-25T04:25:43.722Z,10.39
2023-04-25T04:28:23.720Z,10.34
2023-04-25T04:31:18.113Z,10.48
2023-04-25T04:33:49.234Z,10.46
2023-04-25T04:36:23.030Z,10.45
2023-04-25T04:38:55.189Z,10.38
2023-04-25T04:41:39.661Z,10.48
2023-04-25T04:44:15.382Z,10.60
2023-04-25T04:47:15.285Z,10.69
2023-04-25T04:50:17.834Z,10.74
2023-04-25T04:53:08.821Z,10.83
2023-04-25T04:55:58.269Z,10.93
2023-04-25T04:58:57.075Z,10.79
2023-04-25T05:01:50.760Z,10.82
2023-04-25T05:04:48.137Z,10.70
2023-04-25T05:07:30.405Z,10.60
2023-04-25T05:10:13.174Z,10.63
2023-04-25T05:13:08.973Z,10.64
2023-04-25T05:16:05.150Z,10.58
2023-04-25T05:18:44.530Z,10.66
2023-04-25T05:21:33.642Z,10.68
2023-04-25T05:24:14.260Z,10.35
2023-04-25T05:27:03.579Z,10.36
2023-04-25T05:30:02.237Z,10.68
2023-04-25T05:32:43.461Z,11.00
2023-04-25T05:35:14.169Z,11.16
2023-04-25T05:37:49.377Z,11.33
2023-04-25T05:40:23.421Z,11.33
2023-04-25T05:43:14.671Z,11.33
2023-04-25T05:46:08.144Z,11.40
2023-04-25T05:49:10.863Z,10.80
2023-04-25T05:52:01.669Z,10.82
2023-04-25T05:54:50.450Z,10.89
2023-04-25T05:57:26.548Z,10.89
2023-04-25T05:59:58.370Z,11.18
2023-04-25T06:02:43.944Z,11.28
2023-04-25T06:05:20.479Z,11.57
2023-04-25T06:07:51.894Z,11.47
2023-04-25T06:10:22.452Z,11.55
2023-04-25T06:12:53.197Z,11.71
2023-04-25T06:15:28.700Z,11.54
2023-04-25T06:18:00.314Z,11.37
2023-04-25T06:20:33.400Z,11.37
2023-04-25T06:23:05.061Z,11.55
2023-04-25T06:25:49.221Z,11.81
2023-04-25T06:28:19.844Z,11.86
2023-04-25T06:30:50.322Z,12.02
2023-04-25T06:33:23.341Z,11.99
2023-04-25T06:35:56.814Z,11.95
2023-04-25T06:38:30.366Z,11.90
2023-04-25T06:41:01.760Z,11.94
2023-04-25T06:43:35.729Z,11.62
2023-04-25T06:46:08.928Z,11.46
2023-04-25T06:48:46.179Z,11.25
2023-04-25T06:51:20.509Z,11.30
2023-04-25T06:53:52.801Z,11.40
2023-04-25T06:56:36.041Z,11.52
2023-04-25T06:59:11.670Z,11.29
2023-04-25T07:01:46.052Z,11.42
2023-04-25T07:04:25.806Z,11.53
2023-04-25T07:07:06.960Z,11.60
2023-04-25T07:09:49.952Z,11.81
2023-04-25T07:12:20.615Z,11.75
2023-04-25T07:14:51.345Z,11.77
2023-04-25T07:17:21.804Z,11.87
2023-04-25T07:19:52.634Z,11.75
2023-04-25T07:22:27.655Z,11.77
2023-04-25T07:24:58.312Z,11.54
2023-04-25T07:27:30.451Z,11.47
2023-04-25T07:30:09.386Z,11.59
2023-04-25T07:32:39.852Z,11.72
2023-04-25T07:35:11.937Z,11.76
2023-04-25T07:37:45.150Z,11.83
2023-04-25T07:40:22.751Z,11.87
2023-04-25T07:42:57.369Z,11.75
2023-04-25T07:45:37.565Z,11.88
2023-04-25T07:48:08.558Z,11.93
2023-04-25T07:50:41.519Z,11.80
2023-04-25T07:53:15.091Z,11.76
2023-04-25T07:55:54.967Z,11.45
2023-04-25T07:58:25.844Z,11.49
2023-04-25T08:01:01.385Z,11.66
2023-04-25T08:03:46.690Z,11.85
2023-04-25T08:06:32.829Z,11.92
2023-04-25T08:09:14.977Z,11.67
2023-04-25T08:11:46.634Z,11.61
2023-04-25T08:14:19.706Z,11.83
2023-04-25T08:16:50.229Z,12.77
2023-04-25T08:19:21.693Z,14.05
2023-04-25T08:21:53.049Z,15.70
2023-04-25T08:24:33.333Z,16.17
2023-04-25T08:27:03.994Z,15.02
2023-04-25T08:29:35.353Z,14.37
2023-04-25T08:32:06.151Z,14.07
2023-04-25T08:34:40.706Z,13.66
2023-04-25T08:37:11.605Z,13.03
2023-04-25T08:39:57.330Z,12.58
2023-04-25T08:42:38.928Z,12.36
2023-04-25T08:47:47.239Z,12.24
2023-04-25T08:50:18.396Z,12.36
2023-04-25T08:52:53.627Z,12.47
2023-04-25T08:55:27.926Z,12.53
2023-04-25T08:58:03.849Z,12.62
2023-04-25T09:00:34.453Z,12.60
2023-04-25T09:03:05.884Z,12.49
2023-04-25T09:05:39.096Z,12.64
2023-04-25T09:08:09.786Z,12.96
2023-04-25T09:10:45.213Z,13.10
2023-04-25T09:13:18.871Z,13.19
2023-04-25T09:16:23.393Z,13.02
2023-04-25T09:19:38.810Z,12.63
2023-04-25T09:22:11.857Z,12.40
2023-04-25T09:24:44.843Z,12.19
2023-04-25T09:27:24.597Z,12.16
2023-04-25T09:30:03.394Z,12.16
2023-04-25T09:33:01.911Z,12.00
2023-04-25T09:35:33.893Z,12.04
2023-04-25T09:38:04.378Z,11.97
2023-04-25T09:40:59.581Z,11.81
2023-04-25T09:43:45.473Z,11.64
2023-04-25T09:46:16.850Z,11.66
2023-04-25T09:48:55.290Z,11.66
2023-04-25T09:51:40.318Z,11.56
2023-04-25T09:54:13.463Z,11.43
2023-04-25T09:56:55.631Z,11.36
2023-04-25T09:59:29.461Z,11.36
2023-04-25T10:02:01.750Z,11.38
2023-04-25T10:04:40.280Z,11.55
2023-04-25T10:07:19.592Z,11.84
2023-04-25T10:09:53.758Z,12.06
2023-04-25T10:12:24.491Z,12.16
2023-04-25T10:14:59.271Z,12.17
2023-04-25T10:17:31.283Z,12.27
2023-04-25T10:20:02.168Z,12.17
2023-04-25T10:22:39.095Z,11.97
2023-04-25T10:25:12.356Z,11.76
2023-04-25T10:27:43.654Z,11.61
2023-04-25T10:30:19.207Z,11.61
2023-04-25T10:32:53.206Z,11.37
2023-04-25T10:35:33.859Z,11.29
2023-04-25T10:38:08.119Z,11.17
2023-04-25T10:40:38.818Z,11.00
2023-04-25T10:43:41.371Z,11.00
2023-04-25T10:46:32.093Z,10.97
2023-04-25T10:49:06.025Z,11.03
2023-04-25T10:51:54.202Z,10.99
2023-04-25T10:54:27.421Z,11.00
2023-04-25T10:56:58.285Z,11.03
2023-04-25T10:59:29.737Z,11.07
2023-04-25T11:02:03.657Z,11.06
2023-04-25T11:04:36.659Z,11.04
2023-04-25T11:07:18.238Z,11.22
2023-04-25T11:09:49.333Z,11.13
2023-04-25T11:12:22.998Z,11.07
2023-04-25T11:14:53.479Z,11.03
2023-04-25T11:17:29.741Z,11.12
2023-04-25T11:20:00.540Z,11.30
2023-04-25T11:22:32.114Z,11.55
2023-04-25T11:25:02.684Z,11.59
2023-04-25T11:27:33.208Z,11.68
2023-04-25T11:30:04.048Z,11.65
2023-04-25T11:32:38.364Z,11.45
2023-04-25T11:35:11.218Z,11.20
2023-04-25T11:37:44.222Z,11.01
2023-04-25T11:40:16.118Z,10.86
2023-04-25T11:42:52.401Z,10.80
2023-04-25T11:45:28.286Z,10.74
2023-04-25T11:48:01.629Z,10.67
2023-04-25T11:50:33.009Z,10.71
2023-04-25T11:53:03.672Z,10.57
2023-04-25T11:55:35.059Z,10.62
2023-04-25T11:58:09.214Z,10.76
2023-04-25T12:00:39.813Z,10.81
2023-04-25T12:03:27.684Z,10.83
2023-04-25T12:06:07.740Z,10.81
2023-04-25T12:08:41.352Z,10.87
2023-04-25T12:11:27.453Z,10.90
2023-04-25T12:13:57.959Z,11.01
2023-04-25T12:16:29.488Z,10.99
2023-04-25T12:19:04.053Z,10.77
2023-04-25T12:21:38.833Z,10.72
2023-04-25T12:24:19.483Z,10.73
2023-04-25T12:26:55.697Z,10.65
2023-04-25T12:29:31.773Z,10.63
2023-04-25T12:32:06.007Z,10.61
2023-04-25T12:34:39.259Z,10.58
2023-04-25T12:37:09.778Z,10.47
2023-04-25T12:39:40.883Z,10.38
2023-04-25T12:42:13.371Z,10.31
2023-04-25T12:44:47.610Z,10.23
2023-04-25T12:47:18.620Z,10.23
2023-04-25T12:49:51.701Z,10.10
2023-04-25T12:52:22.125Z,9.95
2023-04-25T12:54:52.773Z,9.83
2023-04-25T12:57:23.759Z,9.85
2023-04-25T12:59:53.964Z,9.82
2023-04-25T13:02:27.145Z,9.81
2023-04-25T13:05:00.415Z,9.91
2023-04-25T13:07:31.730Z,9.97
2023-04-25T13:10:04.044Z,9.92
2023-04-25T13:12:34.487Z,10.14
2023-04-25T13:15:05.362Z,10.29
2023-04-25T13:17:36.058Z,10.49
2023-04-25T13:20:12.112Z,10.46
2023-04-25T13:22:43.455Z,10.48
2023-04-25T13:25:14.179Z,10.53
2023-04-25T13:27:45.515Z,10.59
2023-04-25T13:30:17.028Z,10.66
2023-04-25T13:32:47.917Z,10.84
2023-04-25T13:35:21.858Z,10.92
2023-04-25T13:37:52.449Z,11.10
2023-04-25T13:40:25.256Z,11.14
2023-04-25T13:42:56.494Z,11.05
2023-04-25T13:45:27.093Z,11.24
2023-04-25T13:47:57.802Z,11.45
2023-04-25T13:50:31.447Z,11.69
2023-04-25T13:53:01.955Z,12.67
2023-04-25T13:55:32.767Z,13.11
2023-04-25T13:58:09.071Z,13.32
2023-04-25T14:00:44.783Z,13.28
2023-04-25T14:03:15.439Z,13.50
2023-04-25T14:05:48.852Z,14.67
2023-04-25T14:08:19.591Z,14.93
2023-04-25T14:10:50.237Z,14.35
2023-04-25T14:13:20.986Z,13.86
2023-04-25T14:15:51.725Z,13.44
2023-04-25T14:18:22.788Z,13.35
2023-04-25T14:20:55.980Z,13.30
2023-04-25T14:23:26.665Z,12.90
2023-04-25T14:25:57.493Z,12.62
2023-04-25T14:28:28.023Z,12.45
2023-04-25T14:30:58.756Z,12.31
2023-04-25T14:33:29.266Z,11.98
2023-04-25T14:36:02.427Z,11.71
2023-04-25T14:38:33.273Z,11.53
2023-04-25T14:41:04.062Z,11.31
2023-04-25T14:43:34.643Z,11.17
2023-04-25T14:46:05.230Z,10.91
2023-04-25T14:48:36.196Z,10.70
2023-04-25T14:51:09.741Z,10.60
2023-04-25T14:53:40.159Z,10.46
2023-04-25T14:56:11.292Z,10.38
2023-04-25T14:58:42.300Z,10.37
2023-04-25T15:01:12.600Z,10.59
2023-04-25T15:03:43.336Z,11.14
2023-04-25T15:06:16.919Z,12.48
2023-04-25T15:08:47.360Z,12.34
2023-04-25T15:11:19.089Z,12.05
2023-04-25T15:13:49.744Z,11.71
2023-04-25T15:16:20.541Z,11.54
2023-04-25T15:18:51.521Z,11.43
2023-04-25T15:21:24.881Z,11.40
2023-04-25T15:23:55.347Z,11.35
2023-04-25T15:26:26.142Z,11.39
2023-04-25T15:28:57.179Z,11.58
2023-04-25T15:31:27.404Z,11.92
2023-04-25T15:33:57.929Z,12.62
2023-04-25T15:36:31.533Z,12.96
2023-04-25T15:39:02.131Z,12.89
2023-04-25T15:41:33.067Z,12.82
2023-04-25T15:44:04.579Z,12.82
2023-04-25T15:46:35.214Z,12.98
2023-04-25T15:49:05.941Z,12.83
2023-04-25T15:51:39.136Z,12.75
2023-04-25T15:54:09.878Z,12.66
2023-04-25T15:56:43.212Z,12.62
2023-04-25T15:59:13.732Z,12.58
2023-04-25T16:01:44.447Z,12.56
2023-04-25T16:04:16.104Z,12.55
2023-04-25T16:06:49.467Z,12.25
2023-04-25T16:09:20.157Z,12.08
2023-04-25T16:11:51.206Z,11.91
2023-04-25T16:14:21.728Z,11.84
2023-04-25T16:16:54.161Z,11.90
2023-04-25T16:19:24.647Z,11.91
2023-04-25T16:21:58.056Z,11.96
2023-04-25T16:24:28.494Z,11.93
2023-04-25T16:26:59.253Z,11.77
2023-04-25T16:29:30.091Z,11.68
2023-04-25T16:32:00.847Z,11.50
2023-04-25T16:34:31.669Z,11.30
2023-04-25T16:37:08.829Z,11.16
2023-04-25T16:39:39.351Z,11.04
2023-04-25T16:42:09.852Z,10.92
2023-04-25T16:44:40.391Z,10.84
2023-04-25T16:47:12.392Z,10.70
2023-04-25T16:49:44.696Z,10.68
2023-04-25T16:52:19.961Z,10.68
2023-04-25T16:54:50.384Z,10.63
2023-04-25T16:57:21.354Z,10.57
2023-04-25T16:59:52.189Z,10.60
2023-04-25T17:02:22.949Z,10.67
2023-04-25T17:04:53.981Z,10.62
2023-04-25T17:07:27.237Z,10.65
2023-04-25T17:09:57.618Z,10.58
2023-04-25T17:12:28.202Z,10.59
2023-04-25T17:15:00.515Z,10.57
2023-04-25T17:17:31.273Z,10.59
2023-04-25T17:20:01.917Z,10.62
2023-04-25T17:22:35.171Z,10.64
2023-04-25T17:25:05.773Z,10.66
2023-04-25T17:27:37.135Z,10.62
2023-04-25T17:30:09.726Z,10.56
2023-04-25T17:32:40.230Z,10.53
2023-04-25T17:35:12.058Z,10.56
2023-04-25T17:37:45.574Z,10.48
2023-04-25T17:40:16.770Z,10.44
2023-04-25T17:42:47.274Z,10.44
2023-04-25T17:45:17.804Z,10.42
2023-04-25T17:47:48.474Z,10.40
2023-04-25T17:50:19.720Z,10.32
2023-04-25T17:52:52.749Z,10.29
2023-04-25T17:55:23.966Z,10.24
2023-04-25T17:57:54.504Z,10.20
2023-04-25T18:00:25.266Z,10.21
2023-04-25T18:02:55.979Z,10.17
2023-04-25T18:05:29.160Z,10.14
2023-04-25T18:08:03.905Z,10.13
2023-04-25T18:10:34.459Z,10.14
2023-04-25T18:13:04.968Z,10.16
2023-04-25T18:15:35.407Z,10.05
2023-04-25T18:18:14.989Z,10.03
2023-04-25T18:20:46.971Z,10.01
2023-04-25T18:23:20.225Z,10.02
2023-04-25T18:25:52.180Z,9.98
2023-04-25T18:28:23.156Z,9.94
2023-04-25T18:30:54.499Z,9.91
2023-04-25T18:33:25.545Z,9.89
2023-04-25T18:35:59.105Z,9.86
2023-04-25T18:38:36.025Z,9.93
2023-04-25T18:41:33.872Z,10.00
2023-04-25T18:44:01.474Z,9.93
2023-04-25T18:46:34.453Z,9.92
2023-04-25T18:49:05.249Z,9.81
2023-04-25T18:51:35.707Z,9.71
2023-04-25T18:54:10.992Z,9.70
2023-04-25T18:56:41.692Z,9.65
2023-04-25T18:59:12.504Z,9.66
2023-04-25T19:01:43.693Z,9.71
2023-04-25T19:04:17.283Z,9.63
2023-04-25T19:06:50.126Z,9.62
2023-04-25T19:09:23.564Z,9.55
2023-04-25T19:11:54.462Z,9.50
2023-04-25T19:14:26.180Z,9.45
2023-04-25T19:16:59.493Z,9.43
2023-04-25T19:19:30.589Z,9.42
2023-04-25T19:22:01.789Z,9.37
2023-04-25T19:24:35.039Z,9.37
2023-04-25T19:27:05.962Z,9.32
2023-04-25T19:29:36.665Z,9.27
2023-04-25T19:32:07.865Z,9.24
2023-04-25T19:34:38.442Z,9.13
2023-04-25T19:37:08.921Z,9.03
2023-04-25T19:39:42.060Z,8.95
2023-04-25T19:42:12.703Z,8.95
2023-04-25T19:44:43.291Z,8.89
2023-04-25T19:47:13.883Z,8.88
2023-04-25T19:49:44.450Z,8.84
2023-04-25T19:52:17.498Z,8.85
2023-04-25T19:54:50.873Z,8.88
2023-04-25T19:57:21.508Z,8.80
2023-04-25T19:59:52.342Z,8.73
2023-04-25T20:02:23.276Z,8.71
2023-04-25T20:04:53.995Z,8.74
2023-04-25T20:07:26.995Z,8.61
2023-04-25T20:10:01.796Z,8.59
2023-04-25T20:12:32.291Z,8.54
2023-04-25T20:15:02.933Z,8.48
2023-04-25T20:17:33.500Z,8.45
2023-04-25T20:20:06.533Z,8.34
2023-04-25T20:22:39.019Z,8.40
2023-04-25T20:25:14.566Z,8.19
2023-04-25T20:27:45.458Z,8.29
2023-04-25T20:30:18.767Z,8.35
2023-04-25T20:32:50.298Z,8.20
2023-04-25T20:35:22.877Z,8.12
2023-04-25T20:37:53.797Z,8.04
2023-04-25T20:40:26.993Z,8.10
2023-04-25T20:42:57.406Z,8.04
2023-04-25T20:45:32.071Z,8.16
2023-04-25T20:48:02.914Z,8.05
2023-04-25T20:50:33.577Z,8.04
2023-04-25T20:53:04.191Z,7.88
2023-04-25T20:55:37.471Z,7.80
2023-04-25T20:58:07.900Z,7.83
2023-04-25T21:00:39.230Z,7.87
2023-04-25T21:03:09.587Z,7.80
2023-04-25T21:05:42.338Z,7.74
2023-04-25T21:08:13.232Z,7.64
2023-04-25T21:10:46.629Z,7.79
2023-04-25T21:13:17.542Z,7.77
2023-04-25T21:15:48.440Z,7.83
2023-04-25T21:18:19.007Z,7.94
2023-04-25T21:20:49.661Z,7.99
2023-04-25T21:23:20.142Z,8.15
2023-04-25T21:25:54.575Z,8.19
2023-04-25T21:28:25.318Z,8.20
2023-04-25T21:30:58.940Z,8.24
2023-04-25T21:33:29.386Z,8.25
2023-04-25T21:35:59.988Z,8.29
2023-04-25T21:38:30.678Z,8.30
2023-04-25T21:41:05.207Z,8.29
2023-04-25T21:43:37.198Z,8.31
2023-04-25T21:46:23.087Z,8.31
2023-04-25T21:48:54.781Z,8.33
2023-04-25T21:51:29.010Z,8.39
2023-04-25T21:54:05.436Z,8.39
2023-04-25T21:56:38.875Z,8.40
2023-04-25T21:59:10.568Z,8.45
2023-04-25T22:01:41.187Z,8.48
2023-04-25T22:04:12.139Z,8.48
2023-04-25T22:06:42.927Z,8.50
2023-04-25T22:09:13.424Z,8.48
2023-04-25T22:11:47.171Z,8.44
2023-04-25T22:14:19.967Z,8.46
2023-04-25T22:16:54.667Z,8.44
2023-04-25T22:19:25.128Z,8.41
2023-04-25T22:21:55.729Z,8.33
2023-04-25T22:24:32.322Z,8.33
2023-04-25T22:27:05.625Z,8.17
2023-04-25T22:29:36.879Z,8.10
2023-04-25T22:32:08.247Z,8.16
2023-04-25T22:34:38.962Z,8.06
2023-04-25T22:37:09.645Z,7.97
2023-04-25T22:39:41.249Z,7.87
2023-04-25T22:42:14.460Z,7.75
2023-04-25T22:44:44.882Z,7.70
2023-04-25T22:47:15.363Z,7.75
2023-04-25T22:49:46.143Z,7.78
2023-04-25T22:52:17.332Z,7.71
2023-04-25T22:54:47.538Z,7.59
2023-04-25T22:57:21.822Z,7.69
2023-04-25T22:59:52.770Z,7.77
2023-04-25T23:02:23.540Z,7.90
2023-04-25T23:04:55.138Z,7.94
2023-04-25T23:07:26.317Z,7.95
2023-04-25T23:09:56.766Z,7.91
2023-04-25T23:12:29.821Z,7.95
2023-04-25T23:15:00.238Z,8.00
2023-04-25T23:17:31.715Z,8.07
2023-04-25T23:20:07.281Z,8.04
2023-04-25T23:22:38.244Z,7.96
2023-04-25T23:25:11.182Z,7.93
2023-04-25T23:27:45.146Z,7.90
2023-04-25T23:30:17.420Z,7.92
2023-04-25T23:32:49.617Z,7.92
2023-04-25T23:35:20.027Z,7.91
2023-04-25T23:37:51.245Z,7.91
2023-04-25T23:40:21.910Z,7.89
2023-04-25T23:42:55.019Z,7.88
2023-04-25T23:45:25.565Z,7.92
2023-04-25T23:47:56.141Z,7.90
2023-04-25T23:50:26.899Z,7.93
2023-04-25T23:52:57.366Z,7.93
2023-04-25T23:55:27.957Z,7.82
2023-04-25T23:58:03.904Z,7.83
